sensor_id;sensor_type;location;lat;lon;timestamp;pressure;altitude;pressure_sealevel;temperature;humidity
58534;BME280;44109;52.398;7.024;2023-09-30T00:01:01;102246.03;;;13.19;100.00
58534;BME280;44109;52.398;7.024;2023-09-30T00:03:29;102238.47;;;13.20;100.00
58534;BME280;44109;52.398;7.024;2023-09-30T00:05:59;102240.09;;;13.21;100.00
58534;BME280;44109;52.398;7.024;2023-09-30T00:08:44;102239.41;;;13.24;100.00
58534;BME280;44109;52.398;7.024;2023-09-30T00:11:15;102229.66;;;13.18;100.00
58534;BME280;44109;52.398;7.024;2023-09-30T00:13:45;102240.81;;;13.18;100.00
58534;BME280;44109;52.398;7.024;2023-09-30T00:16:15;102205.44;;;12.94;100.00
58534;BME280;44109;52.398;7.024;2023-09-30T00:18:43;102248.69;;;13.16;100.00
58534;BME280;44109;52.398;7.024;2023-09-30T00:21:12;102240.81;;;13.06;100.00
58534;BME280;44109;52.398;7.024;2023-09-30T00:23:41;102235.72;;;13.08;100.00
58534;BME280;44109;52.398;7.024;2023-09-30T00:26:08;102247.78;;;13.12;100.00
58534;BME280;44109;52.398;7.024;2023-09-30T00:28:36;102230.50;;;13.06;100.00
58534;BME280;44109;52.398;7.024;2023-09-30T00:31:07;102233.41;;;13.10;100.00
58534;BME280;44109;52.398;7.024;2023-09-30T00:33:36;102242.69;;;13.14;100.00
58534;BME280;44109;52.398;7.024;2023-09-30T00:36:08;102230.81;;;13.17;100.00
58534;BME280;44109;52.398;7.024;2023-09-30T00:38:37;102240.34;;;13.16;100.00
58534;BME280;44109;52.398;7.024;2023-09-30T00:41:04;102244.03;;;13.20;100.00
58534;BME280;44109;52.398;7.024;2023-09-30T00:43:33;102239.63;;;13.19;100.00
58534;BME280;44109;52.398;7.024;2023-09-30T00:46:06;102222.25;;;13.10;100.00
58534;BME280;44109;52.398;7.024;2023-09-30T00:48:45;102230.63;;;13.22;100.00
58534;BME280;44109;52.398;7.024;2023-09-30T00:51:13;102245.66;;;13.21;100.00
58534;BME280;44109;52.398;7.024;2023-09-30T00:53:41;102236.19;;;13.22;100.00
58534;BME280;44109;52.398;7.024;2023-09-30T00:56:09;102236.50;;;13.20;100.00
58534;BME280;44109;52.398;7.024;2023-09-30T00:58:38;102245.22;;;13.19;100.00
58534;BME280;44109;52.398;7.024;2023-09-30T01:01:06;102249.63;;;13.20;100.00
58534;BME280;44109;52.398;7.024;2023-09-30T01:03:37;102240.44;;;13.19;100.00
58534;BME280;44109;52.398;7.024;2023-09-30T01:06:05;102231.28;;;13.19;100.00
58534;BME280;44109;52.398;7.024;2023-09-30T01:08:34;102228.38;;;13.15;100.00
58534;BME280;44109;52.398;7.024;2023-09-30T01:11:01;102228.75;;;13.14;100.00
58534;BME280;44109;52.398;7.024;2023-09-30T01:13:32;102243.50;;;13.27;100.00
58534;BME280;44109;52.398;7.024;2023-09-30T01:16:03;102239.53;;;13.28;100.00
58534;BME280;44109;52.398;7.024;2023-09-30T01:18:31;102245.91;;;13.28;100.00
58534;BME280;44109;52.398;7.024;2023-09-30T01:21:03;102254.63;;;13.27;100.00
58534;BME280;44109;52.398;7.024;2023-09-30T01:23:33;102249.41;;;13.25;100.00
58534;BME280;44109;52.398;7.024;2023-09-30T01:26:02;102249.63;;;13.32;100.00
58534;BME280;44109;52.398;7.024;2023-09-30T01:28:31;102246.03;;;13.32;100.00
58534;BME280;44109;52.398;7.024;2023-09-30T01:30:58;102254.72;;;13.30;100.00
58534;BME280;44109;52.398;7.024;2023-09-30T01:33:27;102243.13;;;13.28;100.00
58534;BME280;44109;52.398;7.024;2023-09-30T01:35:54;102245.22;;;13.31;100.00
58534;BME280;44109;52.398;7.024;2023-09-30T01:38:22;102264.38;;;13.33;100.00
58534;BME280;44109;52.398;7.024;2023-09-30T01:40:51;102273.28;;;13.38;100.00
58534;BME280;44109;52.398;7.024;2023-09-30T01:43:20;102278.53;;;13.40;100.00
58534;BME280;44109;52.398;7.024;2023-09-30T01:45:47;102276.06;;;13.38;100.00
58534;BME280;44109;52.398;7.024;2023-09-30T01:48:15;102271.78;;;13.41;100.00
58534;BME280;44109;52.398;7.024;2023-09-30T01:50:43;102267.69;;;13.38;100.00
58534;BME280;44109;52.398;7.024;2023-09-30T01:53:10;102273.50;;;13.45;100.00
58534;BME280;44109;52.398;7.024;2023-09-30T01:55:38;102262.59;;;13.40;100.00
58534;BME280;44109;52.398;7.024;2023-09-30T01:58:07;102271.88;;;13.44;100.00
58534;BME280;44109;52.398;7.024;2023-09-30T02:00:37;102270.25;;;13.43;100.00
58534;BME280;44109;52.398;7.024;2023-09-30T02:03:04;102278.03;;;13.38;100.00
58534;BME280;44109;52.398;7.024;2023-09-30T02:05:33;102264.22;;;13.41;100.00
58534;BME280;44109;52.398;7.024;2023-09-30T02:08:03;102262.03;;;13.35;100.00
58534;BME280;44109;52.398;7.024;2023-09-30T02:10:32;102259.97;;;13.32;100.00
58534;BME280;44109;52.398;7.024;2023-09-30T02:13:00;102224.56;;;13.08;100.00
58534;BME280;44109;52.398;7.024;2023-09-30T02:15:33;102261.00;;;13.27;100.00
58534;BME280;44109;52.398;7.024;2023-09-30T02:18:00;102266.22;;;13.29;100.00
58534;BME280;44109;52.398;7.024;2023-09-30T02:20:29;102275.50;;;13.33;100.00
58534;BME280;44109;52.398;7.024;2023-09-30T02:22:58;102277.00;;;13.30;100.00
58534;BME280;44109;52.398;7.024;2023-09-30T02:25:28;102272.16;;;13.27;100.00
58534;BME280;44109;52.398;7.024;2023-09-30T02:27:56;102262.63;;;13.28;100.00
58534;BME280;44109;52.398;7.024;2023-09-30T02:30:24;102262.88;;;13.23;100.00
58534;BME280;44109;52.398;7.024;2023-09-30T02:32:53;102263.53;;;13.20;100.00
58534;BME280;44109;52.398;7.024;2023-09-30T02:35:22;102256.72;;;13.17;100.00
58534;BME280;44109;52.398;7.024;2023-09-30T02:37:50;102257.16;;;13.19;100.00
58534;BME280;44109;52.398;7.024;2023-09-30T02:40:18;102259.94;;;13.19;100.00
58534;BME280;44109;52.398;7.024;2023-09-30T02:42:46;102247.88;;;13.15;100.00
58534;BME280;44109;52.398;7.024;2023-09-30T02:45:15;102260.75;;;13.20;100.00
58534;BME280;44109;52.398;7.024;2023-09-30T02:47:43;102260.66;;;13.16;100.00
58534;BME280;44109;52.398;7.024;2023-09-30T02:50:12;102255.53;;;13.18;100.00
58534;BME280;44109;52.398;7.024;2023-09-30T02:52:40;102251.47;;;13.16;100.00
58534;BME280;44109;52.398;7.024;2023-09-30T02:55:09;102258.22;;;13.15;100.00
58534;BME280;44109;52.398;7.024;2023-09-30T02:57:37;102264.59;;;13.15;100.00
58534;BME280;44109;52.398;7.024;2023-09-30T03:00:06;102279.34;;;13.16;100.00
58534;BME280;44109;52.398;7.024;2023-09-30T03:02:46;102287.69;;;13.16;100.00
58534;BME280;44109;52.398;7.024;2023-09-30T03:05:15;102288.88;;;13.15;100.00
58534;BME280;44109;52.398;7.024;2023-09-30T03:07:43;102275.19;;;13.10;100.00
58534;BME280;44109;52.398;7.024;2023-09-30T03:10:12;102253.16;;;13.05;100.00
58534;BME280;44109;52.398;7.024;2023-09-30T03:12:46;102270.66;;;13.17;100.00
58534;BME280;44109;52.398;7.024;2023-09-30T03:15:14;102267.28;;;13.12;100.00
58534;BME280;44109;52.398;7.024;2023-09-30T03:17:42;102253.97;;;12.93;100.00
58534;BME280;44109;52.398;7.024;2023-09-30T03:20:11;102272.66;;;13.05;100.00
58534;BME280;44109;52.398;7.024;2023-09-30T03:22:42;102269.06;;;13.04;100.00
58534;BME280;44109;52.398;7.024;2023-09-30T03:25:10;102276.13;;;13.02;100.00
58534;BME280;44109;52.398;7.024;2023-09-30T03:27:38;102275.19;;;12.98;100.00
58534;BME280;44109;52.398;7.024;2023-09-30T03:30:08;102269.88;;;12.92;100.00
58534;BME280;44109;52.398;7.024;2023-09-30T03:32:39;102269.88;;;12.92;100.00
58534;BME280;44109;52.398;7.024;2023-09-30T03:35:08;102257.22;;;12.83;100.00
58534;BME280;44109;52.398;7.024;2023-09-30T03:37:42;102260.03;;;12.83;100.00
58534;BME280;44109;52.398;7.024;2023-09-30T03:40:11;102259.44;;;12.77;100.00
58534;BME280;44109;52.398;7.024;2023-09-30T03:42:41;102265.72;;;12.74;100.00
58534;BME280;44109;52.398;7.024;2023-09-30T03:45:10;102260.13;;;12.62;100.00
58534;BME280;44109;52.398;7.024;2023-09-30T03:47:40;102274.97;;;12.66;100.00
58534;BME280;44109;52.398;7.024;2023-09-30T03:50:09;102276.97;;;12.65;100.00
58534;BME280;44109;52.398;7.024;2023-09-30T03:52:42;102276.75;;;12.58;100.00
58534;BME280;44109;52.398;7.024;2023-09-30T03:55:11;102273.03;;;12.54;100.00
58534;BME280;44109;52.398;7.024;2023-09-30T03:57:41;102262.94;;;12.50;100.00
58534;BME280;44109;52.398;7.024;2023-09-30T04:00:09;102241.81;;;12.36;100.00
58534;BME280;44109;52.398;7.024;2023-09-30T04:02:44;102267.81;;;12.40;100.00
58534;BME280;44109;52.398;7.024;2023-09-30T04:05:16;102264.53;;;12.38;100.00
58534;BME280;44109;52.398;7.024;2023-09-30T04:07:46;102271.03;;;12.42;100.00
58534;BME280;44109;52.398;7.024;2023-09-30T04:10:13;102221.03;;;12.22;100.00
58534;BME280;44109;52.398;7.024;2023-09-30T04:12:41;102255.16;;;12.43;100.00
58534;BME280;44109;52.398;7.024;2023-09-30T04:15:09;102261.19;;;12.45;100.00
58534;BME280;44109;52.398;7.024;2023-09-30T04:17:38;102257.00;;;12.39;100.00
58534;BME280;44109;52.398;7.024;2023-09-30T04:20:07;102272.75;;;12.35;100.00
58534;BME280;44109;52.398;7.024;2023-09-30T04:22:37;102262.66;;;12.30;100.00
58534;BME280;44109;52.398;7.024;2023-09-30T04:25:08;102272.84;;;12.26;100.00
58534;BME280;44109;52.398;7.024;2023-09-30T04:27:37;102230.06;;;12.06;100.00
58534;BME280;44109;52.398;7.024;2023-09-30T04:30:05;102259.78;;;12.27;100.00
58534;BME280;44109;52.398;7.024;2023-09-30T04:32:35;102252.56;;;12.26;100.00
58534;BME280;44109;52.398;7.024;2023-09-30T04:35:03;102254.09;;;12.23;100.00
58534;BME280;44109;52.398;7.024;2023-09-30T04:37:31;102267.19;;;12.23;100.00
58534;BME280;44109;52.398;7.024;2023-09-30T04:39:59;102263.59;;;12.22;100.00
58534;BME280;44109;52.398;7.024;2023-09-30T04:42:28;102260.56;;;12.15;100.00
58534;BME280;44109;52.398;7.024;2023-09-30T04:44:55;102274.25;;;12.20;100.00
58534;BME280;44109;52.398;7.024;2023-09-30T04:47:23;102280.63;;;12.21;100.00
58534;BME280;44109;52.398;7.024;2023-09-30T04:49:50;102272.75;;;12.23;100.00
58534;BME280;44109;52.398;7.024;2023-09-30T04:52:18;102272.41;;;12.24;100.00
58534;BME280;44109;52.398;7.024;2023-09-30T04:54:46;102271.59;;;12.24;100.00
58534;BME280;44109;52.398;7.024;2023-09-30T04:57:14;102276.81;;;12.25;100.00
58534;BME280;44109;52.398;7.024;2023-09-30T04:59:43;102265.44;;;12.18;100.00
58534;BME280;44109;52.398;7.024;2023-09-30T05:02:10;102280.28;;;12.22;100.00
58534;BME280;44109;52.398;7.024;2023-09-30T05:04:41;102285.25;;;12.16;100.00
58534;BME280;44109;52.398;7.024;2023-09-30T05:07:09;102291.63;;;12.17;100.00
58534;BME280;44109;52.398;7.024;2023-09-30T05:09:38;102282.69;;;12.11;100.00
58534;BME280;44109;52.398;7.024;2023-09-30T05:12:07;102285.34;;;12.08;100.00
58534;BME280;44109;52.398;7.024;2023-09-30T05:14:35;102286.19;;;12.08;100.00
58534;BME280;44109;52.398;7.024;2023-09-30T05:17:05;102282.19;;;11.97;100.00
58534;BME280;44109;52.398;7.024;2023-09-30T05:19:34;102293.44;;;12.01;100.00
58534;BME280;44109;52.398;7.024;2023-09-30T05:22:03;102294.84;;;11.95;100.00
58534;BME280;44109;52.398;7.024;2023-09-30T05:24:34;102294.06;;;11.85;100.00
58534;BME280;44109;52.398;7.024;2023-09-30T05:27:02;102312.06;;;11.88;100.00
58534;BME280;44109;52.398;7.024;2023-09-30T05:29:29;102321.06;;;11.85;100.00
58534;BME280;44109;52.398;7.024;2023-09-30T05:31:59;102318.97;;;11.82;100.00
58534;BME280;44109;52.398;7.024;2023-09-30T05:34:28;102320.94;;;11.81;100.00
58534;BME280;44109;52.398;7.024;2023-09-30T05:36:55;102318.81;;;11.78;100.00
58534;BME280;44109;52.398;7.024;2023-09-30T05:39:24;102323.91;;;11.76;100.00
58534;BME280;44109;52.398;7.024;2023-09-30T05:41:51;102324.25;;;11.75;100.00
58534;BME280;44109;52.398;7.024;2023-09-30T05:44:19;102326.22;;;11.74;100.00
58534;BME280;44109;52.398;7.024;2023-09-30T05:46:48;102328.53;;;11.72;100.00
58534;BME280;44109;52.398;7.024;2023-09-30T05:49:16;102329.66;;;11.71;100.00
58534;BME280;44109;52.398;7.024;2023-09-30T05:51:46;102334.41;;;11.71;100.00
58534;BME280;44109;52.398;7.024;2023-09-30T05:54:14;102340.78;;;11.71;100.00
58534;BME280;44109;52.398;7.024;2023-09-30T05:56:42;102337.56;;;11.69;100.00
58534;BME280;44109;52.398;7.024;2023-09-30T05:59:09;102332.53;;;11.62;100.00
58534;BME280;44109;52.398;7.024;2023-09-30T06:01:37;102344.06;;;11.73;100.00
58534;BME280;44109;52.398;7.024;2023-09-30T06:04:05;102330.47;;;11.72;100.00
58534;BME280;44109;52.398;7.024;2023-09-30T06:06:33;102334.56;;;11.74;100.00
58534;BME280;44109;52.398;7.024;2023-09-30T06:09:02;102340.25;;;11.78;100.00
58534;BME280;44109;52.398;7.024;2023-09-30T06:11:30;102338.09;;;11.83;100.00
58534;BME280;44109;52.398;7.024;2023-09-30T06:13:58;102335.91;;;11.89;100.00
58534;BME280;44109;52.398;7.024;2023-09-30T06:16:27;102315.69;;;11.80;100.00
58534;BME280;44109;52.398;7.024;2023-09-30T06:18:57;102344.91;;;12.07;100.00
58534;BME280;44109;52.398;7.024;2023-09-30T06:21:25;102338.47;;;12.15;100.00
58534;BME280;44109;52.398;7.024;2023-09-30T06:23:55;102334.06;;;12.26;100.00
58534;BME280;44109;52.398;7.024;2023-09-30T06:26:24;102338.19;;;12.41;100.00
58534;BME280;44109;52.398;7.024;2023-09-30T06:28:54;102341.09;;;12.57;100.00
58534;BME280;44109;52.398;7.024;2023-09-30T06:31:22;102352.84;;;12.75;100.00
58534;BME280;44109;52.398;7.024;2023-09-30T06:33:50;102351.56;;;12.97;100.00
58534;BME280;44109;52.398;7.024;2023-09-30T06:36:18;102346.22;;;13.16;100.00
58534;BME280;44109;52.398;7.024;2023-09-30T06:38:47;102344.13;;;13.37;100.00
58534;BME280;44109;52.398;7.024;2023-09-30T06:41:16;102342.44;;;13.61;100.00
58534;BME280;44109;52.398;7.024;2023-09-30T06:43:45;102355.31;;;13.78;100.00
58534;BME280;44109;52.398;7.024;2023-09-30T06:46:13;102354.44;;;13.89;100.00
58534;BME280;44109;52.398;7.024;2023-09-30T06:48:41;102351.41;;;13.94;100.00
58534;BME280;44109;52.398;7.024;2023-09-30T06:51:13;102360.88;;;14.06;100.00
58534;BME280;44109;52.398;7.024;2023-09-30T06:53:42;102359.66;;;14.19;100.00
58534;BME280;44109;52.398;7.024;2023-09-30T06:56:09;102363.53;;;14.30;100.00
58534;BME280;44109;52.398;7.024;2023-09-30T06:58:37;102363.84;;;14.41;100.00
58534;BME280;44109;52.398;7.024;2023-09-30T07:01:06;102361.59;;;14.46;100.00
58534;BME280;44109;52.398;7.024;2023-09-30T07:03:33;102363.81;;;14.69;100.00
58534;BME280;44109;52.398;7.024;2023-09-30T07:06:01;102361.00;;;14.85;100.00
58534;BME280;44109;52.398;7.024;2023-09-30T07:08:29;102369.66;;;14.95;100.00
58534;BME280;44109;52.398;7.024;2023-09-30T07:10:57;102372.34;;;15.08;100.00
58534;BME280;44109;52.398;7.024;2023-09-30T07:13:24;102379.00;;;15.19;100.00
58534;BME280;44109;52.398;7.024;2023-09-30T07:15:52;102363.69;;;15.13;100.00
58534;BME280;44109;52.398;7.024;2023-09-30T07:18:21;102378.91;;;15.31;100.00
58534;BME280;44109;52.398;7.024;2023-09-30T07:20:50;102385.91;;;15.41;100.00
58534;BME280;44109;52.398;7.024;2023-09-30T07:23:19;102395.06;;;15.57;100.00
58534;BME280;44109;52.398;7.024;2023-09-30T07:25:47;102399.03;;;15.72;100.00
58534;BME280;44109;52.398;7.024;2023-09-30T07:28:15;102392.13;;;16.05;100.00
58534;BME280;44109;52.398;7.024;2023-09-30T07:30:43;102388.41;;;16.20;100.00
58534;BME280;44109;52.398;7.024;2023-09-30T07:33:11;102385.66;;;16.43;100.00
58534;BME280;44109;52.398;7.024;2023-09-30T07:35:40;102391.66;;;16.64;100.00
58534;BME280;44109;52.398;7.024;2023-09-30T07:38:08;102380.22;;;16.73;100.00
58534;BME280;44109;52.398;7.024;2023-09-30T07:40:35;102375.94;;;16.79;100.00
58534;BME280;44109;52.398;7.024;2023-09-30T07:43:03;102393.50;;;16.99;100.00
58534;BME280;44109;52.398;7.024;2023-09-30T07:45:31;102396.69;;;17.24;100.00
58534;BME280;44109;52.398;7.024;2023-09-30T07:47:58;102409.19;;;17.57;100.00
58534;BME280;44109;52.398;7.024;2023-09-30T07:50:29;102412.16;;;17.67;100.00
58534;BME280;44109;52.398;7.024;2023-09-30T07:52:58;102407.34;;;17.94;100.00
58534;BME280;44109;52.398;7.024;2023-09-30T07:55:26;102399.91;;;18.09;100.00
58534;BME280;44109;52.398;7.024;2023-09-30T07:57:56;102402.25;;;18.04;100.00
58534;BME280;44109;52.398;7.024;2023-09-30T08:00:26;102414.50;;;18.22;100.00
58534;BME280;44109;52.398;7.024;2023-09-30T08:02:53;102403.28;;;18.25;100.00
58534;BME280;44109;52.398;7.024;2023-09-30T08:05:21;102409.84;;;18.37;100.00
58534;BME280;44109;52.398;7.024;2023-09-30T08:07:48;102401.97;;;18.49;100.00
58534;BME280;44109;52.398;7.024;2023-09-30T08:10:17;102411.22;;;18.54;100.00
58534;BME280;44109;52.398;7.024;2023-09-30T08:12:45;102416.22;;;18.71;100.00
58534;BME280;44109;52.398;7.024;2023-09-30T08:15:14;102412.13;;;18.65;100.00
58534;BME280;44109;52.398;7.024;2023-09-30T08:17:43;102412.50;;;18.60;100.00
58534;BME280;44109;52.398;7.024;2023-09-30T08:20:10;102418.91;;;18.60;100.00
58534;BME280;44109;52.398;7.024;2023-09-30T08:22:39;102422.22;;;18.32;100.00
58534;BME280;44109;52.398;7.024;2023-09-30T08:25:08;102422.09;;;18.55;100.00
58534;BME280;44109;52.398;7.024;2023-09-30T08:27:38;102420.22;;;18.33;100.00
58534;BME280;44109;52.398;7.024;2023-09-30T08:30:06;102428.41;;;18.48;100.00
58534;BME280;44109;52.398;7.024;2023-09-30T08:32:36;102433.72;;;18.20;100.00
58534;BME280;44109;52.398;7.024;2023-09-30T08:35:04;102424.28;;;18.35;100.00
58534;BME280;44109;52.398;7.024;2023-09-30T08:37:33;102433.53;;;18.39;100.00
58534;BME280;44109;52.398;7.024;2023-09-30T08:40:00;102424.13;;;18.24;100.00
58534;BME280;44109;52.398;7.024;2023-09-30T08:42:32;102439.69;;;18.52;100.00
58534;BME280;44109;52.398;7.024;2023-09-30T08:45:01;102442.47;;;18.48;100.00
58534;BME280;44109;52.398;7.024;2023-09-30T08:47:31;102440.41;;;18.42;100.00
58534;BME280;44109;52.398;7.024;2023-09-30T08:50:03;102442.66;;;18.29;100.00
58534;BME280;44109;52.398;7.024;2023-09-30T08:52:38;102434.09;;;18.52;100.00
58534;BME280;44109;52.398;7.024;2023-09-30T08:55:07;102434.13;;;18.56;100.00
58534;BME280;44109;52.398;7.024;2023-09-30T08:57:38;102426.31;;;18.72;100.00
58534;BME280;44109;52.398;7.024;2023-09-30T09:00:09;102421.34;;;18.62;100.00
58534;BME280;44109;52.398;7.024;2023-09-30T09:02:38;102417.97;;;18.45;100.00
58534;BME280;44109;52.398;7.024;2023-09-30T09:05:07;102417.88;;;18.72;100.00
58534;BME280;44109;52.398;7.024;2023-09-30T09:07:37;102411.91;;;18.77;100.00
58534;BME280;44109;52.398;7.024;2023-09-30T09:10:07;102407.63;;;18.57;100.00
58534;BME280;44109;52.398;7.024;2023-09-30T09:12:37;102407.81;;;18.71;100.00
58534;BME280;44109;52.398;7.024;2023-09-30T09:15:19;102396.88;;;18.66;100.00
58534;BME280;44109;52.398;7.024;2023-09-30T09:17:47;102410.72;;;18.82;100.00
58534;BME280;44109;52.398;7.024;2023-09-30T09:20:18;102403.25;;;19.00;100.00
58534;BME280;44109;52.398;7.024;2023-09-30T09:22:48;102395.50;;;18.86;100.00
58534;BME280;44109;52.398;7.024;2023-09-30T09:25:19;102393.19;;;18.95;100.00
58534;BME280;44109;52.398;7.024;2023-09-30T09:27:49;102372.91;;;18.72;100.00
58534;BME280;44109;52.398;7.024;2023-09-30T09:30:21;102382.81;;;18.66;100.00
58534;BME280;44109;52.398;7.024;2023-09-30T09:32:54;102403.06;;;18.79;100.00
58534;BME280;44109;52.398;7.024;2023-09-30T09:35:25;102401.50;;;18.85;100.00
58534;BME280;44109;52.398;7.024;2023-09-30T09:37:58;102403.91;;;18.83;100.00
58534;BME280;44109;52.398;7.024;2023-09-30T09:40:29;102405.50;;;18.84;100.00
58534;BME280;44109;52.398;7.024;2023-09-30T09:42:59;102370.41;;;18.67;100.00
58534;BME280;44109;52.398;7.024;2023-09-30T09:45:33;102412.38;;;18.86;100.00
58534;BME280;44109;52.398;7.024;2023-09-30T09:48:01;102432.91;;;18.94;100.00
58534;BME280;44109;52.398;7.024;2023-09-30T09:50:31;102436.59;;;19.01;100.00
58534;BME280;44109;52.398;7.024;2023-09-30T09:52:59;102438.38;;;19.17;100.00
58534;BME280;44109;52.398;7.024;2023-09-30T09:55:27;102412.84;;;18.95;100.00
58534;BME280;44109;52.398;7.024;2023-09-30T09:57:56;102447.75;;;19.35;100.00
58534;BME280;44109;52.398;7.024;2023-09-30T10:00:26;102442.84;;;19.29;100.00
58534;BME280;44109;52.398;7.024;2023-09-30T10:02:57;102444.09;;;19.31;100.00
58534;BME280;44109;52.398;7.024;2023-09-30T10:05:24;102446.44;;;19.25;100.00
58534;BME280;44109;52.398;7.024;2023-09-30T10:07:54;102436.16;;;19.47;100.00
58534;BME280;44109;52.398;7.024;2023-09-30T10:10:27;102428.97;;;19.54;100.00
58534;BME280;44109;52.398;7.024;2023-09-30T10:12:55;102421.97;;;19.26;100.00
58534;BME280;44109;52.398;7.024;2023-09-30T10:15:37;102418.94;;;19.56;100.00
58534;BME280;44109;52.398;7.024;2023-09-30T10:18:08;102427.25;;;19.38;100.00
58534;BME280;44109;52.398;7.024;2023-09-30T10:20:38;102419.38;;;19.62;100.00
58534;BME280;44109;52.398;7.024;2023-09-30T10:23:20;102418.00;;;19.38;100.00
58534;BME280;44109;52.398;7.024;2023-09-30T10:25:53;102423.22;;;19.36;100.00
58534;BME280;44109;52.398;7.024;2023-09-30T10:28:43;102429.19;;;19.27;100.00
58534;BME280;44109;52.398;7.024;2023-09-30T10:31:13;102438.00;;;19.25;100.00
58534;BME280;44109;52.398;7.024;2023-09-30T10:37:19;102444.47;;;19.30;100.00
58534;BME280;44109;52.398;7.024;2023-09-30T10:39:55;102445.50;;;19.59;100.00
58534;BME280;44109;52.398;7.024;2023-09-30T10:42:46;102453.50;;;19.57;100.00
58534;BME280;44109;52.398;7.024;2023-09-30T10:45:43;102463.13;;;19.48;100.00
58534;BME280;44109;52.398;7.024;2023-09-30T10:48:35;102460.72;;;19.50;100.00
58534;BME280;44109;52.398;7.024;2023-09-30T10:51:17;102447.31;;;19.33;100.00
58534;BME280;44109;52.398;7.024;2023-09-30T10:53:48;102449.53;;;19.58;100.00
58534;BME280;44109;52.398;7.024;2023-09-30T10:56:19;102448.00;;;19.71;100.00
58534;BME280;44109;52.398;7.024;2023-09-30T10:58:48;102442.41;;;19.78;100.00
58534;BME280;44109;52.398;7.024;2023-09-30T11:01:18;102442.78;;;19.73;100.00
58534;BME280;44109;52.398;7.024;2023-09-30T11:03:46;102449.72;;;19.93;100.00
58534;BME280;44109;52.398;7.024;2023-09-30T11:06:31;102441.28;;;19.93;100.00
58534;BME280;44109;52.398;7.024;2023-09-30T11:09:00;102444.19;;;20.11;100.00
58534;BME280;44109;52.398;7.024;2023-09-30T11:11:36;102431.75;;;20.19;100.00
58534;BME280;44109;52.398;7.024;2023-09-30T11:14:17;102421.53;;;19.86;100.00
58534;BME280;44109;52.398;7.024;2023-09-30T11:16:51;102416.72;;;19.87;100.00
58534;BME280;44109;52.398;7.024;2023-09-30T11:19:21;102424.91;;;20.17;100.00
58534;BME280;44109;52.398;7.024;2023-09-30T11:21:52;102424.94;;;20.31;100.00
58534;BME280;44109;52.398;7.024;2023-09-30T11:24:21;102416.63;;;20.88;100.00
58534;BME280;44109;52.398;7.024;2023-09-30T11:26:52;102411.38;;;20.72;100.00
58534;BME280;44109;52.398;7.024;2023-09-30T11:29:21;102407.31;;;20.52;100.00
58534;BME280;44109;52.398;7.024;2023-09-30T11:31:49;102421.06;;;20.82;100.00
58534;BME280;44109;52.398;7.024;2023-09-30T11:34:17;102404.53;;;20.81;100.00
58534;BME280;44109;52.398;7.024;2023-09-30T11:36:48;102410.53;;;20.61;100.00
58534;BME280;44109;52.398;7.024;2023-09-30T11:39:22;102415.81;;;20.73;100.00
58534;BME280;44109;52.398;7.024;2023-09-30T11:41:50;102403.72;;;20.84;100.00
58534;BME280;44109;52.398;7.024;2023-09-30T11:44:19;102401.28;;;20.64;100.00
58534;BME280;44109;52.398;7.024;2023-09-30T11:46:47;102399.69;;;20.70;100.00
58534;BME280;44109;52.398;7.024;2023-09-30T11:49:29;102402.91;;;20.76;100.00
58534;BME280;44109;52.398;7.024;2023-09-30T11:52:00;102398.47;;;20.96;100.00
58534;BME280;44109;52.398;7.024;2023-09-30T11:54:30;102395.22;;;21.30;100.00
58534;BME280;44109;52.398;7.024;2023-09-30T11:57:00;102386.38;;;21.39;100.00
58534;BME280;44109;52.398;7.024;2023-09-30T11:59:29;102383.97;;;21.09;100.00
58534;BME280;44109;52.398;7.024;2023-09-30T12:01:57;102392.00;;;21.49;100.00
58534;BME280;44109;52.398;7.024;2023-09-30T12:04:25;102389.19;;;21.28;100.00
58534;BME280;44109;52.398;7.024;2023-09-30T12:06:53;102383.94;;;21.30;100.00
58534;BME280;44109;52.398;7.024;2023-09-30T12:09:22;102390.38;;;21.52;100.00
58534;BME280;44109;52.398;7.024;2023-09-30T12:11:51;102376.19;;;21.77;100.00
58534;BME280;44109;52.398;7.024;2023-09-30T12:14:20;102380.66;;;21.64;100.00
58534;BME280;44109;52.398;7.024;2023-09-30T12:16:48;102373.31;;;21.84;100.00
58534;BME280;44109;52.398;7.024;2023-09-30T12:19:17;102369.66;;;21.91;100.00
58534;BME280;44109;52.398;7.024;2023-09-30T12:21:45;102371.63;;;22.08;100.00
58534;BME280;44109;52.398;7.024;2023-09-30T12:24:14;102368.38;;;22.10;100.00
58534;BME280;44109;52.398;7.024;2023-09-30T12:26:45;102363.09;;;22.22;100.00
58534;BME280;44109;52.398;7.024;2023-09-30T12:29:14;102355.19;;;21.82;100.00
58534;BME280;44109;52.398;7.024;2023-09-30T12:31:43;102371.94;;;22.21;100.00
58534;BME280;44109;52.398;7.024;2023-09-30T12:34:12;102367.59;;;22.13;97.68
58534;BME280;44109;52.398;7.024;2023-09-30T12:36:40;102362.66;;;22.24;98.84
58534;BME280;44109;52.398;7.024;2023-09-30T12:39:10;102373.16;;;22.27;100.00
58534;BME280;44109;52.398;7.024;2023-09-30T12:41:38;102373.09;;;22.34;99.27
58534;BME280;44109;52.398;7.024;2023-09-30T12:44:08;102373.84;;;22.45;98.20
58534;BME280;44109;52.398;7.024;2023-09-30T12:46:36;102373.78;;;22.52;95.18
58534;BME280;44109;52.398;7.024;2023-09-30T12:49:05;102370.31;;;22.31;98.97
58534;BME280;44109;52.398;7.024;2023-09-30T12:51:35;102365.00;;;22.36;98.69
58534;BME280;44109;52.398;7.024;2023-09-30T12:54:03;102356.06;;;22.48;100.00
58534;BME280;44109;52.398;7.024;2023-09-30T12:56:31;102356.13;;;22.34;99.10